OCO133S EBOS-EBOS
Flight info
| Callsign | OCO133S |
|---|---|
| Flight time | 0h 29m |
| Altitude | 7000 |
| Route | EBOS EBOS |
| Aircraft | DA40/L-SBDGRY/S |
Departure
| Time | 2026-04-26 19:33 |
|---|---|
| Airport | Ostend-Bruges International Airport (EBOS) |
Arrival
| Time | 2026-04-26 20:03 |
|---|---|
| Airport | Ostend-Bruges International Airport (EBOS) |
| Time | Latitude | Longitude | Altitude | Speed | Heading |
|---|---|---|---|---|---|
| 2026-04-26 19:20 | 51.19966 | 2.85598 | 11 ft | 0 kts | 231° |
| 2026-04-26 19:30 | 51.19964 | 2.85593 | 11 ft | 4 kts | 229° |
| 2026-04-26 19:30 | 51.19946 | 2.85603 | 11 ft | 6 kts | 130° |
| 2026-04-26 19:30 | 51.19935 | 2.85622 | 11 ft | 1 kts | 151° |
| 2026-04-26 19:31 | 51.19903 | 2.85628 | 11 ft | 6 kts | 215° |
| 2026-04-26 19:31 | 51.19862 | 2.85520 | 11 ft | 15 kts | 266° |
| 2026-04-26 19:31 | 51.19828 | 2.85342 | 11 ft | 18 kts | 243° |
| 2026-04-26 19:31 | 51.19763 | 2.85261 | 11 ft | 7 kts | 201° |
| 2026-04-26 19:32 | 51.19717 | 2.85260 | 11 ft | 9 kts | 160° |
| 2026-04-26 19:32 | 51.19670 | 2.85291 | 11 ft | 4 kts | 130° |
| 2026-04-26 19:32 | 51.19674 | 2.85403 | 11 ft | 30 kts | 78° |
| 2026-04-26 19:32 | 51.19755 | 2.86013 | 54 ft | 73 kts | 73° |
| 2026-04-26 19:33 | 51.19895 | 2.86884 | 222 ft | 87 kts | 69° |
| 2026-04-26 19:33 | 51.20062 | 2.87849 | 444 ft | 90 kts | 73° |
| 2026-04-26 19:33 | 51.20234 | 2.88782 | 707 ft | 86 kts | 49° |
| 2026-04-26 19:33 | 51.20820 | 2.88869 | 950 ft | 94 kts | 347° |
| 2026-04-26 19:34 | 51.21474 | 2.88449 | 1037 ft | 115 kts | 326° |
| 2026-04-26 19:34 | 51.21655 | 2.87182 | 1113 ft | 129 kts | 255° |
| 2026-04-26 19:34 | 51.21382 | 2.85823 | 984 ft | 128 kts | 255° |
| 2026-04-26 19:34 | 51.21095 | 2.84482 | 817 ft | 127 kts | 255° |
| 2026-04-26 19:35 | 51.20826 | 2.83215 | 663 ft | 111 kts | 252° |
| 2026-04-26 19:35 | 51.20278 | 2.82551 | 480 ft | 103 kts | 171° |
| 2026-04-26 19:35 | 51.19681 | 2.83021 | 317 ft | 89 kts | 139° |
| 2026-04-26 19:35 | 51.19442 | 2.83704 | 219 ft | 65 kts | 78° |
| 2026-04-26 19:36 | 51.19520 | 2.84420 | 183 ft | 74 kts | 66° |
| 2026-04-26 19:36 | 51.19608 | 2.84988 | 146 ft | 77 kts | 72° |
| 2026-04-26 19:36 | 51.19772 | 2.86049 | 33 ft | 74 kts | 72° |
| 2026-04-26 19:36 | 51.19891 | 2.86736 | 12 ft | 51 kts | 76° |
| 2026-04-26 19:37 | 51.19965 | 2.87417 | 95 ft | 72 kts | 73° |
| 2026-04-26 19:37 | 51.20106 | 2.88232 | 292 ft | 81 kts | 68° |
| 2026-04-26 19:37 | 51.20272 | 2.89089 | 542 ft | 79 kts | 64° |
| 2026-04-26 19:37 | 51.20791 | 2.89348 | 662 ft | 96 kts | 347° |
| 2026-04-26 19:38 | 51.21372 | 2.88890 | 946 ft | 100 kts | 317° |
| 2026-04-26 19:38 | 51.21409 | 2.87716 | 1062 ft | 118 kts | 258° |
| 2026-04-26 19:38 | 51.21200 | 2.86421 | 1001 ft | 122 kts | 256° |
| 2026-04-26 19:38 | 51.20931 | 2.85138 | 974 ft | 120 kts | 253° |
| 2026-04-26 19:39 | 51.20653 | 2.83891 | 829 ft | 120 kts | 253° |
| 2026-04-26 19:39 | 51.20382 | 2.82674 | 764 ft | 110 kts | 248° |
| 2026-04-26 19:39 | 51.19696 | 2.82280 | 489 ft | 110 kts | 157° |
| 2026-04-26 19:39 | 51.19369 | 2.83040 | 390 ft | 82 kts | 82° |
| 2026-04-26 19:40 | 51.19433 | 2.83904 | 329 ft | 76 kts | 72° |
| 2026-04-26 19:40 | 51.19574 | 2.84738 | 239 ft | 83 kts | 68° |
| 2026-04-26 19:40 | 51.19707 | 2.85609 | 95 ft | 77 kts | 72° |
| 2026-04-26 19:40 | 51.19820 | 2.86372 | 11 ft | 61 kts | 70° |
| 2026-04-26 19:41 | 51.19922 | 2.87061 | 31 ft | 78 kts | 77° |
| 2026-04-26 19:41 | 51.20059 | 2.87950 | 238 ft | 85 kts | 69° |
| 2026-04-26 19:41 | 51.20233 | 2.88831 | 509 ft | 81 kts | 68° |
| 2026-04-26 19:41 | 51.20400 | 2.89359 | 646 ft | 85 kts | 39° |
| 2026-04-26 19:42 | 51.21191 | 2.89091 | 922 ft | 93 kts | 340° |
| 2026-04-26 19:42 | 51.21547 | 2.88166 | 998 ft | 120 kts | 265° |
| 2026-04-26 19:42 | 51.21322 | 2.86912 | 1074 ft | 115 kts | 257° |
| 2026-04-26 19:42 | 51.21111 | 2.85659 | 879 ft | 117 kts | 257° |
| 2026-04-26 19:43 | 51.20893 | 2.84407 | 685 ft | 118 kts | 259° |
| 2026-04-26 19:43 | 51.20580 | 2.83247 | 536 ft | 110 kts | 232° |
| 2026-04-26 19:43 | 51.19924 | 2.82846 | 343 ft | 101 kts | 163° |
| 2026-04-26 19:43 | 51.19491 | 2.83453 | 266 ft | 76 kts | 99° |
| 2026-04-26 19:44 | 51.19493 | 2.84285 | 215 ft | 77 kts | 72° |
| 2026-04-26 19:44 | 51.19627 | 2.85099 | 129 ft | 74 kts | 72° |
| 2026-04-26 19:44 | 51.19747 | 2.85886 | 40 ft | 72 kts | 72° |
| 2026-04-26 19:44 | 51.19853 | 2.86584 | 11 ft | 59 kts | 77° |
| 2026-04-26 19:45 | 51.19937 | 2.87349 | 141 ft | 75 kts | 71° |
| 2026-04-26 19:45 | 51.20081 | 2.88173 | 361 ft | 77 kts | 66° |
| 2026-04-26 19:45 | 51.20322 | 2.88904 | 511 ft | 85 kts | 36° |
| 2026-04-26 19:45 | 51.20941 | 2.88907 | 696 ft | 94 kts | 345° |
| 2026-04-26 19:46 | 51.21462 | 2.88316 | 948 ft | 106 kts | 294° |
| 2026-04-26 19:46 | 51.21325 | 2.87143 | 1085 ft | 111 kts | 252° |
| 2026-04-26 19:46 | 51.21096 | 2.85943 | 1033 ft | 112 kts | 256° |
| 2026-04-26 19:46 | 51.20864 | 2.84792 | 929 ft | 110 kts | 253° |
| 2026-04-26 19:47 | 51.20617 | 2.83660 | 781 ft | 103 kts | 251° |
| 2026-04-26 19:47 | 51.20292 | 2.83139 | 682 ft | 99 kts | 198° |
| 2026-04-26 19:47 | 51.19519 | 2.83430 | 416 ft | 79 kts | 120° |
| 2026-04-26 19:47 | 51.19485 | 2.84216 | 292 ft | 73 kts | 70° |
| 2026-04-26 19:48 | 51.19617 | 2.85005 | 188 ft | 74 kts | 72° |
| 2026-04-26 19:48 | 51.19734 | 2.85798 | 49 ft | 72 kts | 71° |
| 2026-04-26 19:48 | 51.19842 | 2.86491 | 11 ft | 57 kts | 79° |
| 2026-04-26 19:48 | 51.19949 | 2.87251 | 112 ft | 79 kts | 71° |
| 2026-04-26 19:49 | 51.20093 | 2.88089 | 378 ft | 79 kts | 72° |
| 2026-04-26 19:49 | 51.20215 | 2.89005 | 575 ft | 85 kts | 72° |
| 2026-04-26 19:49 | 51.20633 | 2.89590 | 745 ft | 96 kts | 2° |
| 2026-04-26 19:49 | 51.21285 | 2.89217 | 917 ft | 101 kts | 344° |
| 2026-04-26 19:50 | 51.21826 | 2.88492 | 983 ft | 116 kts | 295° |
| 2026-04-26 19:50 | 51.21768 | 2.87200 | 1087 ft | 120 kts | 251° |
| 2026-04-26 19:50 | 51.21499 | 2.85977 | 1006 ft | 115 kts | 253° |
| 2026-04-26 19:50 | 51.21235 | 2.84793 | 828 ft | 112 kts | 253° |
| 2026-04-26 19:51 | 51.20950 | 2.83652 | 696 ft | 109 kts | 243° |
| 2026-04-26 19:51 | 51.20337 | 2.83100 | 507 ft | 108 kts | 176° |
| 2026-04-26 19:51 | 51.19676 | 2.83471 | 344 ft | 94 kts | 131° |
| 2026-04-26 19:51 | 51.19524 | 2.84307 | 246 ft | 78 kts | 80° |
| 2026-04-26 19:52 | 51.19630 | 2.85115 | 129 ft | 72 kts | 71° |
| 2026-04-26 19:52 | 51.19746 | 2.85875 | 37 ft | 70 kts | 71° |
| 2026-04-26 19:52 | 51.19851 | 2.86569 | 11 ft | 66 kts | 77° |
| 2026-04-26 19:52 | 51.19977 | 2.87404 | 148 ft | 85 kts | 70° |
| 2026-04-26 19:53 | 51.20138 | 2.88304 | 413 ft | 83 kts | 73° |
| 2026-04-26 19:53 | 51.20405 | 2.89070 | 640 ft | 86 kts | 28° |
| 2026-04-26 19:53 | 51.21045 | 2.88992 | 813 ft | 100 kts | 341° |
| 2026-04-26 19:53 | 51.21691 | 2.88516 | 926 ft | 107 kts | 340° |
| 2026-04-26 19:54 | 51.22186 | 2.87559 | 889 ft | 124 kts | 288° |
| 2026-04-26 19:54 | 51.22074 | 2.86174 | 916 ft | 129 kts | 253° |
| 2026-04-26 19:54 | 51.21778 | 2.84864 | 919 ft | 122 kts | 252° |
| 2026-04-26 19:54 | 51.21459 | 2.83567 | 843 ft | 134 kts | 249° |
| 2026-04-26 19:55 | 51.20863 | 2.82640 | 746 ft | 114 kts | 190° |
| 2026-04-26 19:55 | 51.20136 | 2.82838 | 513 ft | 105 kts | 148° |
| 2026-04-26 19:55 | 51.19570 | 2.83441 | 356 ft | 88 kts | 114° |
| 2026-04-26 19:55 | 51.19508 | 2.84284 | 245 ft | 76 kts | 75° |
| 2026-04-26 19:56 | 51.19633 | 2.85107 | 139 ft | 77 kts | 71° |
| 2026-04-26 19:56 | 51.19756 | 2.85934 | 34 ft | 75 kts | 72° |
| 2026-04-26 19:56 | 51.19862 | 2.86659 | 11 ft | 67 kts | 76° |
| 2026-04-26 19:56 | 51.19982 | 2.87448 | 82 ft | 81 kts | 69° |
| 2026-04-26 19:57 | 51.20136 | 2.88316 | 335 ft | 82 kts | 70° |
| 2026-04-26 19:57 | 51.20485 | 2.89011 | 545 ft | 88 kts | 21° |
| 2026-04-26 19:57 | 51.21100 | 2.88839 | 688 ft | 98 kts | 343° |
| 2026-04-26 19:57 | 51.21703 | 2.88303 | 817 ft | 106 kts | 314° |
| 2026-04-26 19:58 | 51.21834 | 2.87121 | 913 ft | 119 kts | 261° |
| 2026-04-26 19:58 | 51.21588 | 2.85867 | 969 ft | 117 kts | 253° |
| 2026-04-26 19:58 | 51.21320 | 2.84658 | 896 ft | 116 kts | 253° |
| 2026-04-26 19:58 | 51.21038 | 2.83446 | 961 ft | 116 kts | 250° |
| 2026-04-26 19:59 | 51.20743 | 2.82249 | 981 ft | 117 kts | 251° |
| 2026-04-26 19:59 | 51.20425 | 2.81072 | 1007 ft | 114 kts | 246° |
| 2026-04-26 19:59 | 51.20091 | 2.79896 | 952 ft | 117 kts | 248° |
| 2026-04-26 19:59 | 51.19719 | 2.78776 | 961 ft | 111 kts | 232° |
| 2026-04-26 20:00 | 51.19054 | 2.78264 | 843 ft | 105 kts | 170° |
| 2026-04-26 20:00 | 51.18547 | 2.78850 | 771 ft | 86 kts | 90° |
| 2026-04-26 20:00 | 51.18749 | 2.79701 | 662 ft | 84 kts | 63° |
| 2026-04-26 20:00 | 51.18923 | 2.80593 | 575 ft | 87 kts | 69° |
| 2026-04-26 20:01 | 51.19086 | 2.81514 | 557 ft | 86 kts | 71° |
| 2026-04-26 20:01 | 51.19223 | 2.82431 | 432 ft | 82 kts | 72° |
| 2026-04-26 20:01 | 51.19311 | 2.83000 | 374 ft | 78 kts | 70° |
| 2026-04-26 20:01 | 51.19422 | 2.83769 | 270 ft | 70 kts | 70° |
| 2026-04-26 20:02 | 51.19550 | 2.84526 | 232 ft | 71 kts | 73° |
| 2026-04-26 20:02 | 51.19661 | 2.85305 | 123 ft | 73 kts | 70° |
| 2026-04-26 20:02 | 51.19775 | 2.86068 | 31 ft | 68 kts | 72° |
| 2026-04-26 20:02 | 51.19846 | 2.86529 | 11 ft | 59 kts | 71° |
| 2026-04-26 20:03 | 51.19946 | 2.87202 | 14 ft | 35 kts | 75° |
| 2026-04-26 20:03 | 51.19960 | 2.87299 | 13 ft | 3 kts | 23° |
| 2026-04-26 20:03 | 51.20005 | 2.87250 | 12 ft | 12 kts | 349° |
| 2026-04-26 20:03 | 51.20046 | 2.87200 | 11 ft | 0 kts | 309° |
| 2026-04-26 20:04 | 51.20051 | 2.87192 | 11 ft | 0 kts | 319° |
| 2026-04-26 20:04 | 51.20052 | 2.87190 | 11 ft | 1 kts | 330° |
| 2026-04-26 20:04 | 51.20100 | 2.87167 | 11 ft | 4 kts | 328° |
| 2026-04-26 20:05 | 51.20093 | 2.87056 | 11 ft | 20 kts | 253° |
| 2026-04-26 20:05 | 51.20051 | 2.86790 | 11 ft | 25 kts | 257° |
| 2026-04-26 20:05 | 51.20011 | 2.86521 | 11 ft | 25 kts | 257° |
| 2026-04-26 20:05 | 51.19973 | 2.86265 | 11 ft | 22 kts | 258° |
| 2026-04-26 20:06 | 51.19940 | 2.86044 | 11 ft | 20 kts | 253° |
| 2026-04-26 20:06 | 51.19899 | 2.85771 | 11 ft | 26 kts | 256° |
| 2026-04-26 20:06 | 51.19875 | 2.85601 | 11 ft | 0 kts | 303° |
| 2026-04-26 20:06 | 51.19888 | 2.85603 | 11 ft | 6 kts | 34° |
| 2026-04-26 20:07 | 51.19919 | 2.85661 | 11 ft | 8 kts | 47° |
| 2026-04-26 20:07 | 51.19960 | 2.85693 | 11 ft | 6 kts | 323° |
| 2026-04-26 20:07 | 51.19993 | 2.85653 | 11 ft | 0 kts | 332° |
| 2026-04-26 20:07 | 51.19995 | 2.85655 | 11 ft | 1 kts | 46° |
| 2026-04-26 20:08 | 51.20000 | 2.85663 | 11 ft | 1 kts | 48° |
| 2026-04-26 20:08 | 51.20004 | 2.85671 | 11 ft | 0 kts | 51° |